Main page
METAR-TAF:

METAR-TAF

Airports :

Cherif Al Idrissi Airport

Al Hoceima, Morocco

latitude: 35-11N, longitude: 003-51W, elevation: 27 m

Current weather observation

The report was made 22 minutes ago, at 14:00 UTC
Wind 4 kt from the East/Southeast, varying between East/Northeast and South/Southwest
Temperature 16°C
Humidity 63%
Pressure 1022 hPa
Visibility: 8000 m
Few clouds at a height of 2000 ft
Scattered clouds at a height of 4000 ft
Broken clouds at a height of 10000 ft

METAR: GMTA 231400Z 11004KT 060V200 8000 FEW020 SCT040 BKN100 16/09 Q1022 NOSIG

Time: 15:22 (14:22 UTC)

Forecast

The report was made 3 hours and 22 minutes ago, at 11:00 UTC
Forecast valid from 23 at 12 UTC to 24 at 18 UTC
Wind 2 kt from variable directions
Visibility: 8000 m
Few clouds at a height of 2300 ft

TAF: GMTA 231100Z 2312/2418 VRB02KT 8000 FEW023

Weather observations and forecasts of more than 4000 airports (METAR and TAF reports).

The available stations are represented by yellow and red dots on the map.

Hover mouse over dot to see the name of the station.

Then click to see weather observations and forecasts.

To change the map : click on the green buttons with a black cross to zoom in, on the green button with a dash to zoom out, or on the green arrows for adjacent maps.


METAR-TAF: